createdAt,value
2022-10-04T00:01:08.200Z,67.10
2022-10-04T00:03:41.545Z,67.28
2022-10-04T00:06:16.378Z,67.23
2022-10-04T00:08:48.482Z,67.12
2022-10-04T00:11:20.298Z,67.09
2022-10-04T00:13:52.187Z,67.00
2022-10-04T00:16:25.756Z,67.01
2022-10-04T00:19:03.857Z,66.98
2022-10-04T00:22:03.516Z,66.94
2022-10-04T00:24:35.741Z,66.87
2022-10-04T00:27:24.003Z,66.92
2022-10-04T00:30:20.782Z,66.74
2022-10-04T00:33:02.747Z,66.72
2022-10-04T00:35:50.501Z,66.72
2022-10-04T00:38:27.272Z,66.79
2022-10-04T00:41:00.408Z,66.76
2022-10-04T00:43:36.716Z,66.77
2022-10-04T00:46:09.742Z,66.87
2022-10-04T00:48:44.833Z,66.92
2022-10-04T00:51:21.836Z,66.79
2022-10-04T00:53:56.705Z,66.83
2022-10-04T00:56:31.013Z,66.93
2022-10-04T00:59:22.533Z,66.95
2022-10-04T01:01:56.551Z,67.04
2022-10-04T01:04:29.509Z,66.96
2022-10-04T01:07:00.329Z,66.90
2022-10-04T01:09:34.148Z,66.91
2022-10-04T01:12:09.700Z,67.04
2022-10-04T01:14:45.876Z,67.12
2022-10-04T01:17:14.312Z,67.10
2022-10-04T01:19:52.890Z,67.09
2022-10-04T01:22:35.954Z,66.97
2022-10-04T01:25:05.895Z,66.99
2022-10-04T01:27:37.128Z,66.98
2022-10-04T01:30:10.025Z,67.43
2022-10-04T01:32:39.596Z,69.30
2022-10-04T01:35:11.673Z,69.52
2022-10-04T01:37:40.554Z,69.71
2022-10-04T01:40:11.213Z,69.53
2022-10-04T01:42:44.008Z,68.64
2022-10-04T01:45:16.791Z,68.08
2022-10-04T01:47:50.518Z,67.97
2022-10-04T01:50:26.881Z,67.87
2022-10-04T01:53:02.091Z,67.79
2022-10-04T01:55:34.144Z,67.62
2022-10-04T01:58:07.500Z,67.56
2022-10-04T02:00:37.393Z,67.57
2022-10-04T02:03:11.458Z,67.66
2022-10-04T02:05:44.478Z,67.62
2022-10-04T02:08:17.871Z,67.70
2022-10-04T02:10:50.332Z,67.66
2022-10-04T02:13:19.606Z,67.61
2022-10-04T02:15:50.104Z,67.46
2022-10-04T02:18:20.419Z,67.46
2022-10-04T02:20:50.500Z,67.24
2022-10-04T02:23:20.526Z,67.14
2022-10-04T02:25:50.841Z,67.34
2022-10-04T02:28:21.578Z,67.25
2022-10-04T02:31:10.792Z,67.38
2022-10-04T02:33:43.985Z,67.15
2022-10-04T02:36:16.003Z,67.21
2022-10-04T02:38:47.917Z,67.27
2022-10-04T02:41:25.892Z,67.33
2022-10-04T02:43:58.005Z,67.85
2022-10-04T02:46:30.652Z,67.81
2022-10-04T02:49:03.219Z,68.01
2022-10-04T02:51:37.914Z,68.19
2022-10-04T02:54:14.811Z,68.03
2022-10-04T02:56:44.341Z,68.07
2022-10-04T02:59:16.235Z,68.05
2022-10-04T03:01:51.434Z,68.18
2022-10-04T03:04:23.084Z,67.99
2022-10-04T03:06:52.722Z,68.06
2022-10-04T03:09:28.814Z,67.94
2022-10-04T03:11:59.585Z,68.12
2022-10-04T03:14:30.110Z,68.18
2022-10-04T03:17:03.259Z,68.19
2022-10-04T03:19:33.043Z,68.26
2022-10-04T03:22:03.916Z,68.45
2022-10-04T03:24:35.590Z,68.49
2022-10-04T03:27:06.910Z,68.49
2022-10-04T03:29:35.633Z,68.65
2022-10-04T03:32:06.162Z,68.62
2022-10-04T03:34:37.366Z,68.55
2022-10-04T03:37:09.912Z,68.35
2022-10-04T03:39:40.029Z,68.20
2022-10-04T03:42:13.416Z,68.20
2022-10-04T03:44:44.024Z,68.13
2022-10-04T03:47:15.457Z,68.12
2022-10-04T03:49:50.534Z,67.99
2022-10-04T03:52:22.392Z,68.05
2022-10-04T03:54:53.519Z,68.01
2022-10-04T03:57:23.711Z,68.01
2022-10-04T03:59:54.583Z,67.79
2022-10-04T04:02:32.235Z,67.75
2022-10-04T04:05:06.823Z,67.65
2022-10-04T04:07:38.558Z,67.70
2022-10-04T04:10:16.983Z,67.72
2022-10-04T04:12:49.147Z,67.72
2022-10-04T04:15:19.017Z,67.60
2022-10-04T04:17:48.916Z,67.34
2022-10-04T04:20:22.247Z,67.07
2022-10-04T04:22:58.540Z,67.15
2022-10-04T04:25:28.156Z,67.19
2022-10-04T04:28:07.514Z,66.93
2022-10-04T04:30:38.090Z,66.98
2022-10-04T04:33:12.408Z,66.92
2022-10-04T04:35:43.052Z,66.86
2022-10-04T04:38:19.583Z,67.00
2022-10-04T04:40:48.926Z,67.04
2022-10-04T04:43:19.760Z,66.95
2022-10-04T04:46:02.959Z,66.97
2022-10-04T04:48:39.343Z,66.86
2022-10-04T04:51:13.198Z,66.75
2022-10-04T04:53:44.397Z,66.63
2022-10-04T04:56:17.402Z,66.53
2022-10-04T04:58:49.452Z,66.57
2022-10-04T05:01:23.539Z,66.68
2022-10-04T05:04:04.223Z,66.50
2022-10-04T05:06:34.243Z,66.55
2022-10-04T05:09:02.817Z,66.91
2022-10-04T05:11:34.435Z,67.07
2022-10-04T05:14:08.396Z,67.22
2022-10-04T05:16:40.370Z,67.08
2022-10-04T05:19:15.296Z,66.87
2022-10-04T05:21:46.501Z,66.74
2022-10-04T05:24:22.047Z,66.54
2022-10-04T05:26:53.291Z,66.50
2022-10-04T05:29:25.339Z,66.43
2022-10-04T05:32:02.152Z,66.44
2022-10-04T05:34:34.611Z,66.29
2022-10-04T05:37:22.977Z,65.96
2022-10-04T05:39:59.676Z,65.94
2022-10-04T05:42:38.286Z,65.99
2022-10-04T05:45:17.579Z,65.92
2022-10-04T05:47:47.674Z,65.86
2022-10-04T05:50:20.983Z,66.04
2022-10-04T05:52:52.270Z,66.21
2022-10-04T05:55:28.389Z,66.25
2022-10-04T05:58:17.597Z,66.13
2022-10-04T06:01:02.704Z,66.12
2022-10-04T06:03:43.968Z,66.05
2022-10-04T06:06:18.222Z,65.88
2022-10-04T06:08:59.997Z,65.81
2022-10-04T06:11:40.142Z,65.81
2022-10-04T06:14:30.012Z,65.72
2022-10-04T06:17:21.143Z,65.72
2022-10-04T06:20:09.576Z,65.50
2022-10-04T06:22:46.397Z,65.26
2022-10-04T06:25:20.976Z,65.01
2022-10-04T06:27:54.404Z,65.13
2022-10-04T06:30:24.049Z,65.01
2022-10-04T06:33:21.424Z,64.75
2022-10-04T06:36:26.265Z,64.78
2022-10-04T06:39:13.011Z,64.56
2022-10-04T06:42:14.246Z,64.71
2022-10-04T06:44:54.352Z,64.41
2022-10-04T06:47:35.630Z,64.20
2022-10-04T06:50:16.079Z,64.28
2022-10-04T06:53:01.836Z,64.22
2022-10-04T06:55:47.160Z,64.01
2022-10-04T06:58:45.434Z,64.20
2022-10-04T07:01:24.379Z,64.22
2022-10-04T07:03:57.539Z,63.87
2022-10-04T07:06:30.601Z,64.09
2022-10-04T07:09:02.340Z,64.41
2022-10-04T07:11:42.423Z,64.06
2022-10-04T07:14:15.609Z,63.23
2022-10-04T07:16:49.288Z,63.12
2022-10-04T07:19:32.410Z,62.88
2022-10-04T07:22:11.678Z,63.15
2022-10-04T07:24:51.787Z,63.72
2022-10-04T07:27:22.382Z,63.33
2022-10-04T07:29:55.994Z,63.10
2022-10-04T07:32:27.246Z,62.83
2022-10-04T07:34:59.620Z,62.94
2022-10-04T07:37:31.134Z,62.47
2022-10-04T07:40:04.225Z,62.10
2022-10-04T07:42:40.074Z,62.14
2022-10-04T07:45:16.812Z,62.46
2022-10-04T07:47:45.905Z,61.43
2022-10-04T07:50:23.772Z,60.53
2022-10-04T07:52:56.993Z,60.80
2022-10-04T07:55:29.679Z,60.94
2022-10-04T07:58:13.945Z,60.89
2022-10-04T08:00:49.325Z,60.90
2022-10-04T08:03:56.693Z,60.66
2022-10-04T08:06:33.492Z,60.24
2022-10-04T08:09:18.196Z,59.79
2022-10-04T08:11:54.047Z,59.30
2022-10-04T08:14:28.046Z,59.39
2022-10-04T08:17:15.641Z,59.68
2022-10-04T08:19:50.106Z,59.22
2022-10-04T08:22:27.856Z,59.26
2022-10-04T08:25:04.356Z,58.91
2022-10-04T08:28:07.136Z,59.60
2022-10-04T08:30:54.176Z,59.11
2022-10-04T08:33:29.326Z,59.33
2022-10-04T08:36:11.578Z,58.91
2022-10-04T08:38:47.953Z,58.69
2022-10-04T08:41:50.935Z,57.93
2022-10-04T08:44:58.000Z,57.21
2022-10-04T08:48:18.526Z,57.36
2022-10-04T08:51:15.098Z,57.09
2022-10-04T08:54:14.724Z,56.13
2022-10-04T08:57:04.986Z,55.84
2022-10-04T09:00:08.029Z,55.90
2022-10-04T09:03:04.499Z,55.18
2022-10-04T09:05:47.310Z,54.28
2022-10-04T09:08:50.113Z,54.35
2022-10-04T09:11:48.082Z,55.04
2022-10-04T09:14:43.575Z,55.37
2022-10-04T09:17:22.550Z,55.58
2022-10-04T09:20:26.393Z,56.02
2022-10-04T09:23:00.735Z,55.58
2022-10-04T09:26:00.219Z,54.18
2022-10-04T09:29:08.649Z,53.33
2022-10-04T09:32:14.646Z,54.74
2022-10-04T09:34:57.267Z,54.64
2022-10-04T09:37:34.140Z,54.09
2022-10-04T09:40:45.357Z,53.50
2022-10-04T09:43:45.696Z,54.41
2022-10-04T09:46:24.055Z,54.46
2022-10-04T09:49:01.759Z,53.89
2022-10-04T09:51:52.779Z,54.28
2022-10-04T09:54:33.011Z,53.96
2022-10-04T09:57:15.602Z,53.89
2022-10-04T09:59:57.837Z,53.01
2022-10-04T10:02:57.089Z,53.18
2022-10-04T10:05:47.560Z,53.32
2022-10-04T10:08:28.155Z,53.18
2022-10-04T10:11:25.264Z,52.68
2022-10-04T10:14:25.640Z,52.15
2022-10-04T10:17:02.463Z,52.75
2022-10-04T10:20:16.733Z,52.64
2022-10-04T10:23:30.871Z,52.08
2022-10-04T10:26:25.901Z,52.73
2022-10-04T10:29:14.177Z,52.85
2022-10-04T10:31:57.296Z,51.74
2022-10-04T10:34:41.610Z,51.35
2022-10-04T10:37:15.359Z,50.02
2022-10-04T10:40:30.067Z,49.70
2022-10-04T10:43:26.403Z,49.93
2022-10-04T10:46:04.819Z,50.49
2022-10-04T10:48:47.974Z,49.73
2022-10-04T10:51:26.924Z,49.29
2022-10-04T10:54:34.427Z,47.97
2022-10-04T10:57:14.406Z,46.78
2022-10-04T11:00:31.756Z,47.40
2022-10-04T11:03:20.546Z,45.31
2022-10-04T11:06:19.967Z,47.27
2022-10-04T11:09:31.368Z,48.18
2022-10-04T11:12:40.207Z,46.93
2022-10-04T11:15:33.679Z,46.36
2022-10-04T11:18:24.006Z,47.24
2022-10-04T11:21:26.927Z,47.88
2022-10-04T11:24:28.704Z,48.27
2022-10-04T11:27:11.440Z,48.59
2022-10-04T11:29:56.420Z,47.62
2022-10-04T11:32:56.681Z,46.97
2022-10-04T11:35:50.851Z,47.52
2022-10-04T11:38:33.662Z,46.99
2022-10-04T11:41:16.149Z,47.65
2022-10-04T11:44:19.609Z,48.07
2022-10-04T11:46:52.463Z,48.61
2022-10-04T11:49:42.587Z,47.97
2022-10-04T11:52:42.211Z,48.27
2022-10-04T11:55:39.746Z,48.28
2022-10-04T11:58:14.733Z,46.18
2022-10-04T12:01:02.770Z,45.09
2022-10-04T12:03:53.028Z,44.79
2022-10-04T12:06:45.225Z,45.72
2022-10-04T12:09:19.922Z,46.37
2022-10-04T12:12:38.965Z,46.17
2022-10-04T12:15:31.537Z,46.00
2022-10-04T12:18:27.960Z,46.15
2022-10-04T12:21:29.638Z,45.78
2022-10-04T12:24:23.069Z,45.43
2022-10-04T12:27:16.264Z,44.58
2022-10-04T12:30:24.746Z,44.21
2022-10-04T12:33:17.120Z,42.97
2022-10-04T12:35:57.499Z,42.39
2022-10-04T12:38:40.422Z,42.13
2022-10-04T12:41:15.755Z,41.06
2022-10-04T12:43:51.868Z,41.00
2022-10-04T12:46:30.837Z,41.85
2022-10-04T12:49:27.583Z,42.60
2022-10-04T12:52:05.904Z,42.92
2022-10-04T12:54:40.447Z,39.87
2022-10-04T12:57:42.917Z,40.12
2022-10-04T13:00:19.277Z,40.55
2022-10-04T13:03:10.835Z,40.69
2022-10-04T13:05:49.814Z,41.75
2022-10-04T13:08:24.608Z,41.29
2022-10-04T13:11:05.178Z,40.11
2022-10-04T13:13:48.986Z,40.47
2022-10-04T13:19:19.459Z,37.64
2022-10-04T13:22:02.432Z,39.58
2022-10-04T13:24:55.960Z,38.68
2022-10-04T13:27:32.881Z,38.13
2022-10-04T13:30:06.878Z,37.91
2022-10-04T13:32:45.594Z,39.76
2022-10-04T13:35:20.861Z,38.35
2022-10-04T13:38:02.433Z,39.16
2022-10-04T13:40:37.549Z,40.11
2022-10-04T13:43:34.551Z,40.37
2022-10-04T13:46:12.666Z,39.90
2022-10-04T13:48:48.201Z,40.18
2022-10-04T13:51:28.789Z,40.16
2022-10-04T13:54:24.977Z,39.91
2022-10-04T13:57:11.625Z,40.33
2022-10-04T13:59:44.290Z,40.08
2022-10-04T14:02:51.893Z,40.19
2022-10-04T14:05:50.965Z,40.89
2022-10-04T14:08:47.907Z,41.25
2022-10-04T14:11:41.121Z,41.78
2022-10-04T14:14:43.040Z,42.13
2022-10-04T14:18:04.025Z,41.27
2022-10-04T14:21:19.626Z,40.53
2022-10-04T14:24:25.706Z,40.11
2022-10-04T14:27:20.297Z,40.97
2022-10-04T14:30:04.127Z,41.18
2022-10-04T14:33:02.238Z,41.48
2022-10-04T14:35:35.686Z,41.56
2022-10-04T14:38:37.289Z,41.61
2022-10-04T14:41:28.378Z,42.02
2022-10-04T14:44:18.568Z,41.89
2022-10-04T14:46:57.585Z,41.80
2022-10-04T14:49:40.706Z,41.79
2022-10-04T14:52:21.827Z,42.02
2022-10-04T14:54:54.126Z,41.51
2022-10-04T14:57:42.170Z,41.75
2022-10-04T15:00:23.960Z,41.68
2022-10-04T15:03:28.612Z,40.95
2022-10-04T15:06:21.519Z,41.41
2022-10-04T15:09:10.701Z,41.85
2022-10-04T15:12:02.430Z,41.86
2022-10-04T15:14:41.221Z,41.77
2022-10-04T15:17:24.450Z,41.87
2022-10-04T15:20:02.676Z,42.33
2022-10-04T15:22:40.920Z,42.13
2022-10-04T15:25:40.277Z,42.10
2022-10-04T15:28:16.676Z,42.59
2022-10-04T15:30:51.628Z,42.97
2022-10-04T15:33:31.436Z,42.79
2022-10-04T15:36:23.312Z,43.11
2022-10-04T15:39:01.356Z,42.94
2022-10-04T15:41:40.930Z,43.13
2022-10-04T15:44:40.364Z,43.28
2022-10-04T15:47:17.187Z,43.45
2022-10-04T15:50:00.065Z,43.77
2022-10-04T15:53:10.648Z,44.16
2022-10-04T15:56:07.090Z,44.28
2022-10-04T15:59:03.910Z,44.46
2022-10-04T16:01:47.210Z,44.50
2022-10-04T16:04:37.220Z,44.96
2022-10-04T16:07:21.295Z,45.17
2022-10-04T16:09:52.728Z,45.40
2022-10-04T16:12:27.264Z,45.84
2022-10-04T16:14:59.207Z,45.99
2022-10-04T16:17:46.732Z,45.72
2022-10-04T16:20:54.651Z,46.26
2022-10-04T16:23:31.007Z,46.69
2022-10-04T16:26:02.715Z,46.83
2022-10-04T16:29:00.418Z,47.02
2022-10-04T16:31:44.220Z,47.32
2022-10-04T16:34:50.331Z,47.38
2022-10-04T16:37:34.022Z,47.43
2022-10-04T16:40:16.268Z,47.84
2022-10-04T16:42:52.394Z,48.08
2022-10-04T16:45:42.300Z,48.31
2022-10-04T16:48:30.694Z,48.47
2022-10-04T16:51:29.863Z,48.71
2022-10-04T16:54:04.511Z,48.92
2022-10-04T16:57:13.552Z,49.05
2022-10-04T16:59:47.871Z,49.44
2022-10-04T17:02:28.979Z,49.58
2022-10-04T17:05:22.148Z,49.87
2022-10-04T17:08:16.640Z,50.05
2022-10-04T17:11:09.358Z,50.24
2022-10-04T17:13:55.572Z,50.48
2022-10-04T17:16:30.591Z,50.79
2022-10-04T17:19:20.182Z,51.01
2022-10-04T17:22:00.887Z,51.14
2022-10-04T17:24:38.860Z,51.28
2022-10-04T17:27:27.046Z,51.41
2022-10-04T17:30:12.419Z,51.49
2022-10-04T17:32:51.217Z,51.55
2022-10-04T17:35:56.639Z,51.75
2022-10-04T17:38:33.673Z,51.95
2022-10-04T17:41:08.872Z,52.08
2022-10-04T17:43:43.178Z,52.17
2022-10-04T17:46:18.254Z,52.32
2022-10-04T17:49:11.741Z,52.43
2022-10-04T17:52:05.434Z,52.64
2022-10-04T17:55:00.241Z,52.78
2022-10-04T17:57:37.841Z,52.86
2022-10-04T18:00:10.255Z,53.03
2022-10-04T18:03:04.853Z,53.18
2022-10-04T18:05:45.899Z,53.33
2022-10-04T18:08:20.710Z,53.40
2022-10-04T18:10:52.501Z,53.53
2022-10-04T18:13:28.747Z,53.65
2022-10-04T18:16:03.388Z,53.67
2022-10-04T18:18:39.789Z,53.76
2022-10-04T18:21:21.878Z,53.71
2022-10-04T18:23:55.599Z,53.80
2022-10-04T18:26:27.270Z,53.92
2022-10-04T18:28:56.327Z,54.18
2022-10-04T18:31:30.705Z,54.26
2022-10-04T18:34:08.159Z,54.48
2022-10-04T18:36:53.266Z,54.41
2022-10-04T18:39:23.751Z,54.56
2022-10-04T18:42:18.944Z,54.69
2022-10-04T18:44:58.705Z,54.89
2022-10-04T18:47:36.508Z,54.88
2022-10-04T18:50:16.709Z,54.85
2022-10-04T18:52:56.699Z,54.97
2022-10-04T18:55:37.612Z,55.03
2022-10-04T18:58:37.735Z,55.33
2022-10-04T19:01:47.056Z,55.46
2022-10-04T19:04:21.198Z,55.52
2022-10-04T19:06:50.007Z,55.53
2022-10-04T19:09:23.590Z,55.63
2022-10-04T19:11:56.634Z,55.83
2022-10-04T19:14:29.864Z,55.86
2022-10-04T19:17:01.409Z,55.89
2022-10-04T19:19:44.309Z,55.88
2022-10-04T19:22:21.621Z,55.99
2022-10-04T19:25:02.373Z,56.07
2022-10-04T19:27:36.216Z,56.31
2022-10-04T19:30:16.483Z,56.35
2022-10-04T19:33:00.451Z,56.34
2022-10-04T19:35:45.897Z,56.37
2022-10-04T19:38:32.799Z,56.47
2022-10-04T19:41:07.036Z,56.56
2022-10-04T19:43:46.261Z,56.68
2022-10-04T19:46:26.118Z,56.67
2022-10-04T19:48:57.172Z,56.87
2022-10-04T19:51:33.234Z,56.83
2022-10-04T19:54:09.905Z,56.83
2022-10-04T19:56:43.210Z,56.90
2022-10-04T19:59:18.946Z,56.90
2022-10-04T20:01:52.147Z,56.90
2022-10-04T20:04:38.013Z,56.91
2022-10-04T20:07:18.931Z,56.98
2022-10-04T20:09:55.283Z,57.14
2022-10-04T20:12:34.689Z,57.14
2022-10-04T20:15:25.119Z,57.17
2022-10-04T20:18:02.117Z,57.21
2022-10-04T20:21:24.312Z,57.34
2022-10-04T20:23:58.498Z,57.27
2022-10-04T20:26:56.768Z,57.46
2022-10-04T20:30:03.883Z,57.58
2022-10-04T20:32:58.891Z,57.62
2022-10-04T20:36:06.463Z,57.69
2022-10-04T20:38:49.722Z,57.79
2022-10-04T20:42:01.376Z,57.91
2022-10-04T20:44:54.717Z,57.94
2022-10-04T20:47:39.445Z,57.94
2022-10-04T20:50:26.019Z,58.01
2022-10-04T20:52:58.371Z,57.81
2022-10-04T20:55:28.838Z,57.90
2022-10-04T20:58:00.319Z,57.78
2022-10-04T21:00:33.833Z,57.88
2022-10-04T21:03:13.370Z,57.98
2022-10-04T21:05:42.060Z,58.13
2022-10-04T21:08:22.357Z,58.14
2022-10-04T21:11:20.400Z,58.21
2022-10-04T21:13:56.369Z,58.16
2022-10-04T21:16:46.239Z,58.39
2022-10-04T21:19:49.731Z,58.60
2022-10-04T21:22:38.928Z,58.61
2022-10-04T21:25:33.797Z,58.64
2022-10-04T21:28:31.977Z,58.72
2022-10-04T21:31:02.870Z,58.69
2022-10-04T21:33:36.341Z,58.87
2022-10-04T21:36:06.861Z,58.97
2022-10-04T21:38:35.581Z,58.89
2022-10-04T21:41:05.368Z,58.75
2022-10-04T21:43:35.015Z,58.70
2022-10-04T21:46:03.744Z,58.75
2022-10-04T21:48:32.852Z,58.91
2022-10-04T21:51:03.741Z,58.96
2022-10-04T21:53:37.145Z,58.93
2022-10-04T21:56:07.462Z,58.92
2022-10-04T21:58:36.619Z,58.91
2022-10-04T22:01:08.002Z,59.06
2022-10-04T22:03:37.274Z,59.11
2022-10-04T22:06:07.242Z,59.07
2022-10-04T22:08:36.433Z,59.11
2022-10-04T22:11:05.293Z,59.11
2022-10-04T22:13:35.070Z,59.20
2022-10-04T22:16:08.111Z,59.16
2022-10-04T22:22:27.680Z,59.36
2022-10-04T22:24:56.424Z,59.38
2022-10-04T22:27:27.356Z,59.24
2022-10-04T22:29:56.369Z,59.37
2022-10-04T22:32:27.784Z,59.44
2022-10-04T22:35:00.115Z,59.35
2022-10-04T22:37:31.130Z,59.39
2022-10-04T22:39:59.913Z,59.45
2022-10-04T22:42:31.263Z,59.50
2022-10-04T22:45:02.727Z,59.69
2022-10-04T22:47:33.411Z,59.77
2022-10-04T22:50:03.686Z,59.76
2022-10-04T22:52:32.292Z,59.79
2022-10-04T22:55:02.954Z,59.89
2022-10-04T22:57:32.332Z,59.89
2022-10-04T23:00:02.346Z,59.87
2022-10-04T23:02:31.591Z,59.80
2022-10-04T23:05:14.012Z,59.99
2022-10-04T23:07:43.915Z,60.00
2022-10-04T23:10:15.912Z,59.99
2022-10-04T23:12:46.920Z,59.86
2022-10-04T23:15:18.953Z,59.87
2022-10-04T23:17:53.777Z,59.86
2022-10-04T23:20:23.258Z,59.94
2022-10-04T23:22:53.798Z,59.82
2022-10-04T23:25:25.039Z,59.71
2022-10-04T23:27:54.898Z,59.84
2022-10-04T23:30:25.017Z,59.90
2022-10-04T23:32:59.051Z,59.77
2022-10-04T23:35:31.888Z,59.89
2022-10-04T23:38:06.344Z,59.97
2022-10-04T23:40:35.596Z,59.87
2022-10-04T23:43:06.321Z,59.91
2022-10-04T23:45:41.394Z,59.81
2022-10-04T23:48:13.274Z,59.87
2022-10-04T23:50:43.985Z,60.02
2022-10-04T23:53:26.055Z,59.97
2022-10-04T23:55:55.920Z,60.04
2022-10-04T23:58:26.839Z,59.88
